createdAt,value
2018-02-10T00:01:14.806Z,48.22
2018-02-10T00:03:43.247Z,45.88
2018-02-10T00:06:11.580Z,44.90
2018-02-10T00:08:39.945Z,43.70
2018-02-10T00:11:09.094Z,41.08
2018-02-10T00:13:37.438Z,39.72
2018-02-10T00:16:05.860Z,36.70
2018-02-10T00:18:34.199Z,36.35
2018-02-10T00:21:03.328Z,34.72
2018-02-10T00:23:31.650Z,33.72
2018-02-10T00:25:59.971Z,37.97
2018-02-10T00:28:29.072Z,34.35
2018-02-10T00:30:57.397Z,34.10
2018-02-10T00:33:25.735Z,35.47
2018-02-10T00:35:54.146Z,33.38
2018-02-10T00:38:22.973Z,33.80
2018-02-10T00:40:51.344Z,30.12
2018-02-10T00:43:19.710Z,34.20
2018-02-10T00:45:48.936Z,34.45
2018-02-10T00:48:17.311Z,31.45
2018-02-10T00:50:45.698Z,35.25
2018-02-10T00:53:14.859Z,32.97
2018-02-10T00:55:43.199Z,33.85
2018-02-10T00:58:11.535Z,35.65
2018-02-10T01:00:39.876Z,31.15
2018-02-10T01:03:09.003Z,31.75
2018-02-10T01:05:37.343Z,32.65
2018-02-10T01:08:05.883Z,32.03
2018-02-10T01:10:34.270Z,30.37
2018-02-10T01:13:02.627Z,29.33
2018-02-10T01:15:30.971Z,28.15
2018-02-10T01:17:59.294Z,33.60
2018-02-10T01:20:28.398Z,31.52
2018-02-10T01:22:57.514Z,30.12
2018-02-10T01:25:25.824Z,28.17
2018-02-10T01:27:54.172Z,30.73
2018-02-10T01:30:22.529Z,31.30
2018-02-10T01:32:51.632Z,32.65
2018-02-10T01:35:20.740Z,28.42
2018-02-10T01:37:49.830Z,31.75
2018-02-10T01:40:19.549Z,32.03
2018-02-10T01:42:48.649Z,29.75
2018-02-10T01:45:16.958Z,32.67
2018-02-10T01:47:45.265Z,32.08
2018-02-10T01:50:21.336Z,31.02
2018-02-10T01:52:49.690Z,30.98
2018-02-10T01:55:18.023Z,30.75
2018-02-10T01:57:47.141Z,30.50
2018-02-10T02:00:15.466Z,32.75
2018-02-10T02:02:43.776Z,31.33
2018-02-10T02:05:12.871Z,29.00
2018-02-10T02:07:41.352Z,31.67
2018-02-10T02:10:09.783Z,32.28
2018-02-10T02:12:38.192Z,30.50
2018-02-10T02:15:06.537Z,30.90
2018-02-10T02:17:35.643Z,32.33
2018-02-10T02:20:03.973Z,32.50
2018-02-10T02:22:32.333Z,31.77
2018-02-10T02:25:00.698Z,31.62
2018-02-10T02:27:29.046Z,30.65
2018-02-10T02:29:58.140Z,31.17
2018-02-10T02:32:27.342Z,31.98
2018-02-10T02:34:55.686Z,29.02
2018-02-10T02:37:24.047Z,30.40
2018-02-10T02:39:53.130Z,32.03
2018-02-10T02:42:22.249Z,30.33
2018-02-10T02:44:50.820Z,29.73
2018-02-10T02:47:19.894Z,32.58
2018-02-10T02:49:49.000Z,33.95
2018-02-10T02:52:17.325Z,31.52
2018-02-10T02:54:45.681Z,33.03
2018-02-10T02:57:14.761Z,31.00
2018-02-10T02:59:43.220Z,33.00
2018-02-10T03:02:11.555Z,30.58
2018-02-10T03:04:40.648Z,32.25
2018-02-10T03:07:09.741Z,29.85
2018-02-10T03:09:38.845Z,32.95
2018-02-10T03:12:07.919Z,29.48
2018-02-10T03:14:36.270Z,29.42
2018-02-10T03:17:05.609Z,31.67
2018-02-10T03:19:33.946Z,29.95
2018-02-10T03:22:02.304Z,31.70
2018-02-10T03:24:31.409Z,33.60
2018-02-10T03:27:00.495Z,30.77
2018-02-10T03:29:29.603Z,34.03
2018-02-10T03:31:58.706Z,32.83
2018-02-10T03:34:27.774Z,32.50
2018-02-10T03:36:56.094Z,30.70
2018-02-10T03:39:24.456Z,29.52
2018-02-10T03:41:52.797Z,30.50
2018-02-10T03:44:21.149Z,29.30
2018-02-10T03:46:49.495Z,28.73
2018-02-10T03:49:17.848Z,32.63
2018-02-10T03:51:46.204Z,31.00
2018-02-10T03:54:14.520Z,31.30
2018-02-10T03:56:50.242Z,29.80
2018-02-10T03:59:19.191Z,30.92
2018-02-10T04:01:48.360Z,28.80
2018-02-10T04:04:16.751Z,31.02
2018-02-10T04:06:45.103Z,29.37
2018-02-10T04:09:13.463Z,30.40
2018-02-10T04:11:42.534Z,32.47
2018-02-10T04:14:10.855Z,31.65
2018-02-10T04:16:39.191Z,28.90
2018-02-10T04:19:08.327Z,32.17
2018-02-10T04:21:37.476Z,30.83
2018-02-10T04:24:06.605Z,28.87
2018-02-10T04:26:34.916Z,30.50
2018-02-10T04:29:03.301Z,31.87
2018-02-10T04:31:31.644Z,34.20
2018-02-10T04:33:59.957Z,31.92
2018-02-10T04:36:30.030Z,30.42
2018-02-10T04:38:58.390Z,32.47
2018-02-10T04:41:26.725Z,30.83
2018-02-10T04:43:55.830Z,30.23
2018-02-10T04:46:24.167Z,28.15
2018-02-10T04:48:52.506Z,29.02
2018-02-10T04:51:21.627Z,30.42
2018-02-10T04:53:50.035Z,30.55
2018-02-10T04:56:18.360Z,31.58
2018-02-10T04:58:47.473Z,31.50
2018-02-10T05:01:15.809Z,31.65
2018-02-10T05:03:44.134Z,29.65
2018-02-10T05:06:12.478Z,31.58
2018-02-10T05:08:40.793Z,29.87
2018-02-10T05:11:09.919Z,28.50
2018-02-10T05:13:38.306Z,30.52
2018-02-10T05:16:06.693Z,30.92
2018-02-10T05:18:35.051Z,30.60
2018-02-10T05:21:04.461Z,35.35
2018-02-10T05:23:33.693Z,31.17
2018-02-10T05:26:02.152Z,30.35
2018-02-10T05:28:30.480Z,30.10
2018-02-10T05:30:58.798Z,30.67
2018-02-10T05:33:27.889Z,29.55
2018-02-10T05:35:57.014Z,29.27
2018-02-10T05:38:26.124Z,29.45
2018-02-10T05:40:54.436Z,32.17
2018-02-10T05:43:22.766Z,31.92
2018-02-10T05:45:51.882Z,32.13
2018-02-10T05:48:20.601Z,29.67
2018-02-10T05:50:48.986Z,29.80
2018-02-10T05:53:17.555Z,31.08
2018-02-10T05:55:46.031Z,32.50
2018-02-10T05:58:15.173Z,32.35
2018-02-10T06:00:44.321Z,30.37
2018-02-10T06:03:13.498Z,32.78
2018-02-10T06:05:42.673Z,32.72
2018-02-10T06:08:11.020Z,29.77
2018-02-10T06:10:39.473Z,33.17
2018-02-10T06:13:07.801Z,31.37
2018-02-10T06:15:36.226Z,30.95
2018-02-10T06:18:05.354Z,29.98
2018-02-10T06:20:33.780Z,30.75
2018-02-10T06:23:02.127Z,29.27
2018-02-10T06:25:31.233Z,30.75
2018-02-10T06:27:59.628Z,29.63
2018-02-10T06:30:28.270Z,31.17
2018-02-10T06:32:56.693Z,30.42
2018-02-10T06:35:25.954Z,30.27
2018-02-10T06:37:55.971Z,29.65
2018-02-10T06:40:24.333Z,31.10
2018-02-10T06:42:52.924Z,31.35
2018-02-10T06:45:21.284Z,31.62
2018-02-10T06:47:49.760Z,31.65
2018-02-10T06:50:18.227Z,29.40
2018-02-10T06:52:46.994Z,32.00
2018-02-10T06:55:15.510Z,33.03
2018-02-10T06:57:44.311Z,29.87
2018-02-10T07:00:14.598Z,31.42
2018-02-10T07:02:43.484Z,31.52
2018-02-10T07:05:11.954Z,32.72
2018-02-10T07:07:40.745Z,32.97
2018-02-10T07:10:10.795Z,32.28
2018-02-10T07:12:39.595Z,30.75
2018-02-10T07:15:08.165Z,32.67
2018-02-10T07:17:36.793Z,32.65
2018-02-10T07:20:05.279Z,33.78
2018-02-10T07:22:33.836Z,35.38
2018-02-10T07:25:03.098Z,32.13
2018-02-10T07:27:31.475Z,30.45
2018-02-10T07:29:59.869Z,30.58
2018-02-10T07:32:28.560Z,28.85
2018-02-10T07:34:57.027Z,30.90
2018-02-10T07:37:25.658Z,32.22
2018-02-10T07:39:54.075Z,29.02
2018-02-10T07:42:22.544Z,32.35
2018-02-10T07:44:51.104Z,32.15
2018-02-10T07:47:20.575Z,33.17
2018-02-10T07:49:49.016Z,30.08
2018-02-10T07:52:17.451Z,31.85
2018-02-10T07:54:45.799Z,28.50
2018-02-10T07:57:14.952Z,31.40
2018-02-10T07:59:43.303Z,31.58
2018-02-10T08:02:12.398Z,30.58
2018-02-10T08:04:41.473Z,26.58
2018-02-10T08:07:09.849Z,31.25
2018-02-10T08:09:38.200Z,28.33
2018-02-10T08:12:06.571Z,29.80
2018-02-10T08:14:35.339Z,30.17
2018-02-10T08:17:04.719Z,29.45
2018-02-10T08:19:33.099Z,30.00
2018-02-10T08:22:01.464Z,28.95
2018-02-10T08:24:29.784Z,30.67
2018-02-10T08:26:58.878Z,28.17
2018-02-10T08:29:28.040Z,29.00
2018-02-10T08:31:56.395Z,29.60
2018-02-10T08:34:24.872Z,28.40
2018-02-10T08:36:53.409Z,29.37
2018-02-10T08:39:22.195Z,30.62
2018-02-10T08:41:50.614Z,26.50
2018-02-10T08:44:18.970Z,28.65
2018-02-10T08:46:51.189Z,28.90
2018-02-10T08:49:19.791Z,27.25
2018-02-10T08:51:48.200Z,29.45
2018-02-10T08:54:17.505Z,28.00
2018-02-10T08:56:45.844Z,29.40
2018-02-10T08:59:14.967Z,29.63
2018-02-10T09:01:43.362Z,32.03
2018-02-10T09:04:12.037Z,29.20
2018-02-10T09:06:41.342Z,29.48
2018-02-10T09:09:10.747Z,29.52
2018-02-10T09:11:43.165Z,28.40
2018-02-10T09:14:14.604Z,28.08
2018-02-10T09:16:43.011Z,29.95
2018-02-10T09:19:14.221Z,29.67
2018-02-10T09:21:44.197Z,30.73
2018-02-10T09:24:13.303Z,28.90
2018-02-10T09:26:42.578Z,29.67
2018-02-10T09:29:20.557Z,27.27
2018-02-10T09:31:50.624Z,29.77
2018-02-10T09:34:19.437Z,29.75
2018-02-10T09:36:48.894Z,26.02
2018-02-10T09:39:17.751Z,29.37
2018-02-10T09:41:47.104Z,26.95
2018-02-10T09:44:17.337Z,29.90
2018-02-10T09:46:46.233Z,26.92
2018-02-10T09:49:15.481Z,27.98
2018-02-10T09:51:44.917Z,28.80
2018-02-10T09:54:13.708Z,28.95
2018-02-10T09:56:42.072Z,27.62
2018-02-10T09:59:10.502Z,19.90
2018-02-10T10:01:38.873Z,19.60
2018-02-10T10:04:07.298Z,21.62
2018-02-10T10:06:36.709Z,18.48
2018-02-10T10:09:05.436Z,19.30
2018-02-10T10:11:34.565Z,19.40
2018-02-10T10:14:02.979Z,18.77
2018-02-10T10:16:31.293Z,18.58
2018-02-10T10:18:59.691Z,20.05
2018-02-10T10:21:28.201Z,22.77
2018-02-10T10:23:57.328Z,29.12
2018-02-10T10:26:25.754Z,29.23
2018-02-10T10:28:54.504Z,23.62
2018-02-10T10:31:23.046Z,23.95
2018-02-10T10:33:51.787Z,25.42
2018-02-10T10:36:20.798Z,25.65
2018-02-10T10:38:49.318Z,25.52
2018-02-10T10:41:17.943Z,25.15
2018-02-10T10:43:46.500Z,28.90
2018-02-10T10:46:15.826Z,27.85
2018-02-10T10:48:44.167Z,30.23
2018-02-10T10:51:14.199Z,31.07
2018-02-10T10:53:43.591Z,28.83
2018-02-10T10:56:11.979Z,30.33
2018-02-10T10:58:40.353Z,30.50
2018-02-10T11:01:08.789Z,32.47
2018-02-10T11:03:37.194Z,30.05
2018-02-10T11:06:05.706Z,32.30
2018-02-10T11:08:34.459Z,30.80
2018-02-10T11:11:03.672Z,32.05
2018-02-10T11:13:32.046Z,30.10
2018-02-10T11:16:01.199Z,31.67
2018-02-10T11:18:29.599Z,31.77
2018-02-10T11:20:57.965Z,32.15
2018-02-10T11:23:26.660Z,32.25
2018-02-10T11:25:55.272Z,31.48
2018-02-10T11:28:24.459Z,32.42
2018-02-10T11:30:52.807Z,30.20
2018-02-10T11:33:21.975Z,31.50
2018-02-10T11:35:50.492Z,30.37
2018-02-10T11:38:19.086Z,32.08
2018-02-10T11:40:47.997Z,30.80
2018-02-10T11:43:16.659Z,29.98
2018-02-10T11:45:45.122Z,28.30
2018-02-10T11:48:13.663Z,30.73
2018-02-10T11:50:42.228Z,31.10
2018-02-10T11:53:10.902Z,28.87
2018-02-10T11:55:39.352Z,29.58
2018-02-10T11:58:08.053Z,28.92
2018-02-10T12:00:36.787Z,28.75
2018-02-10T12:03:05.453Z,31.45
2018-02-10T12:05:34.844Z,29.98
2018-02-10T12:08:04.323Z,28.87
2018-02-10T12:10:32.778Z,29.40
2018-02-10T12:13:01.698Z,30.60
2018-02-10T12:15:31.129Z,29.70
2018-02-10T12:17:59.951Z,31.98
2018-02-10T12:20:29.733Z,30.85
2018-02-10T12:23:01.631Z,31.17
2018-02-10T12:25:30.976Z,30.62
2018-02-10T12:27:59.337Z,29.97
2018-02-10T12:30:30.527Z,30.52
2018-02-10T12:33:00.338Z,32.00
2018-02-10T12:35:31.990Z,31.40
2018-02-10T12:38:00.601Z,29.00
2018-02-10T12:40:30.127Z,30.67
2018-02-10T12:42:58.959Z,30.40
2018-02-10T12:45:27.386Z,32.63
2018-02-10T12:48:02.274Z,30.10
2018-02-10T12:50:32.007Z,31.87
2018-02-10T12:53:01.886Z,30.88
2018-02-10T12:55:30.510Z,30.95
2018-02-10T12:57:59.337Z,32.85
2018-02-10T13:00:31.319Z,31.08
2018-02-10T13:03:00.497Z,30.65
2018-02-10T13:05:30.008Z,31.92
2018-02-10T13:07:59.286Z,29.48
2018-02-10T13:10:29.612Z,27.20
2018-02-10T13:12:58.379Z,27.52
2018-02-10T13:15:27.071Z,30.02
2018-02-10T13:17:55.922Z,29.52
2018-02-10T13:20:26.025Z,28.60
2018-02-10T13:22:55.802Z,25.48
2018-02-10T13:25:25.898Z,27.70
2018-02-10T13:27:55.667Z,27.15
2018-02-10T13:30:25.350Z,28.05
2018-02-10T13:32:54.788Z,30.02
2018-02-10T13:35:25.578Z,28.30
2018-02-10T13:37:54.724Z,28.33
2018-02-10T13:40:24.632Z,28.58
2018-02-10T13:42:53.617Z,27.05
2018-02-10T13:45:27.127Z,29.58
2018-02-10T13:47:57.220Z,28.95
2018-02-10T13:50:27.761Z,29.00
2018-02-10T13:52:56.792Z,30.08
2018-02-10T13:55:26.359Z,28.70
2018-02-10T13:57:57.331Z,27.70
2018-02-10T14:00:28.773Z,27.35
2018-02-10T14:02:58.738Z,27.67
2018-02-10T14:05:28.787Z,28.50
2018-02-10T14:07:58.953Z,27.15
2018-02-10T14:10:29.026Z,27.60
2018-02-10T14:12:58.294Z,26.12
2018-02-10T14:15:27.261Z,26.23
2018-02-10T14:17:56.539Z,25.00
2018-02-10T14:20:27.199Z,27.77
2018-02-10T14:22:58.197Z,25.77
2018-02-10T14:25:27.248Z,24.37
2018-02-10T14:27:57.730Z,25.98
2018-02-10T14:30:34.131Z,26.87
2018-02-10T14:33:05.076Z,24.23
2018-02-10T14:35:35.979Z,26.48
2018-02-10T14:38:06.393Z,26.55
2018-02-10T14:40:38.719Z,27.23
2018-02-10T14:43:08.803Z,24.40
2018-02-10T14:45:40.128Z,24.85
2018-02-10T14:48:10.176Z,24.48
2018-02-10T14:50:40.320Z,25.80
2018-02-10T14:53:09.374Z,25.52
2018-02-10T14:55:37.997Z,25.75
2018-02-10T14:58:07.365Z,25.62
2018-02-10T15:00:36.762Z,27.50
2018-02-10T15:03:09.228Z,23.42
2018-02-10T15:05:39.790Z,24.55
2018-02-10T15:08:08.919Z,24.27
2018-02-10T15:13:13.739Z,24.65
2018-02-10T15:15:46.470Z,23.30
2018-02-10T15:18:16.450Z,24.20
2018-02-10T15:20:45.557Z,24.75
2018-02-10T15:23:16.000Z,22.77
2018-02-10T15:25:44.798Z,22.25
2018-02-10T15:28:14.391Z,21.25
2018-02-10T15:30:55.095Z,19.62
2018-02-10T15:33:35.548Z,21.15
2018-02-10T15:36:04.117Z,21.27
2018-02-10T15:38:32.925Z,19.65
2018-02-10T15:41:01.564Z,19.70
2018-02-10T15:43:31.159Z,22.45
2018-02-10T15:45:59.917Z,20.52
2018-02-10T15:48:29.597Z,18.92
2018-02-10T15:50:59.295Z,18.05
2018-02-10T15:53:27.772Z,19.50
2018-02-10T15:55:56.172Z,21.65
2018-02-10T15:58:25.252Z,19.33
2018-02-10T16:00:54.079Z,19.30
2018-02-10T16:03:24.266Z,21.05
2018-02-10T16:05:54.793Z,18.90
2018-02-10T16:08:26.598Z,19.90
2018-02-10T16:10:57.299Z,18.62
2018-02-10T16:13:26.862Z,17.70
2018-02-10T16:15:58.709Z,15.02
2018-02-10T16:18:27.456Z,14.73
2018-02-10T16:20:56.114Z,14.90
2018-02-10T16:23:25.285Z,13.30
2018-02-10T16:25:54.933Z,14.05
2018-02-10T16:28:23.263Z,13.45
2018-02-10T16:30:51.773Z,12.75
2018-02-10T16:33:21.547Z,10.52
2018-02-10T16:35:50.428Z,11.93
2018-02-10T16:38:19.201Z,12.63
2018-02-10T16:40:47.862Z,12.20
2018-02-10T16:43:17.936Z,12.25
2018-02-10T16:45:46.502Z,10.93
2018-02-10T16:48:15.155Z,12.02
2018-02-10T16:50:44.329Z,11.15
2018-02-10T16:53:12.932Z,12.40
2018-02-10T16:55:41.472Z,12.70
2018-02-10T16:58:09.885Z,13.50
2018-02-10T17:00:38.559Z,12.07
2018-02-10T17:03:07.285Z,12.68
2018-02-10T17:05:35.943Z,12.25
2018-02-10T17:08:06.785Z,13.38
2018-02-10T17:10:36.531Z,10.98
2018-02-10T17:13:05.822Z,11.43
2018-02-10T17:15:34.369Z,11.30
2018-02-10T17:18:03.551Z,11.10
2018-02-10T17:20:32.870Z,12.20
2018-02-10T17:23:01.856Z,12.30
2018-02-10T17:25:30.573Z,12.05
2018-02-10T17:27:59.189Z,11.65
2018-02-10T17:30:28.845Z,12.55
2018-02-10T17:32:57.726Z,12.15
2018-02-10T17:35:26.962Z,12.00
2018-02-10T17:37:57.835Z,12.57
2018-02-10T17:40:26.570Z,12.35
2018-02-10T17:42:55.160Z,12.85
2018-02-10T17:45:24.269Z,14.00
2018-02-10T17:47:52.706Z,11.95
2018-02-10T17:50:21.470Z,13.05
2018-02-10T17:52:51.075Z,12.63
2018-02-10T17:55:19.852Z,11.98
2018-02-10T17:57:48.410Z,13.82
2018-02-10T18:00:17.502Z,12.50
2018-02-10T18:02:46.859Z,12.95
2018-02-10T18:05:15.530Z,13.45
2018-02-10T18:07:44.347Z,15.43
2018-02-10T18:10:21.087Z,15.27
2018-02-10T18:12:52.806Z,14.10
2018-02-10T18:15:21.724Z,12.40
2018-02-10T18:17:50.157Z,13.38
2018-02-10T18:20:18.763Z,13.10
2018-02-10T18:22:47.473Z,12.45
2018-02-10T18:25:16.496Z,12.55
2018-02-10T18:27:45.263Z,11.65
2018-02-10T18:30:13.931Z,12.75
2018-02-10T18:32:42.396Z,12.48
2018-02-10T18:35:10.751Z,12.45
2018-02-10T18:37:40.129Z,13.43
2018-02-10T18:40:09.006Z,13.70
2018-02-10T18:42:38.042Z,14.68
2018-02-10T18:45:07.273Z,13.25
2018-02-10T18:47:35.683Z,13.73
2018-02-10T18:50:04.161Z,13.25
2018-02-10T18:52:32.604Z,13.10
2018-02-10T18:55:01.043Z,12.73
2018-02-10T18:57:30.756Z,12.73
2018-02-10T18:59:59.719Z,11.93
2018-02-10T19:02:28.604Z,12.50
2018-02-10T19:04:57.998Z,12.30
2018-02-10T19:07:28.861Z,13.30
2018-02-10T19:09:58.601Z,12.00
2018-02-10T19:12:27.643Z,12.40
2018-02-10T19:14:58.388Z,12.43
2018-02-10T19:17:28.426Z,12.05
2018-02-10T19:19:57.643Z,13.13
2018-02-10T19:22:26.537Z,12.70
2018-02-10T19:24:56.008Z,12.65
2018-02-10T19:27:25.873Z,12.73
2018-02-10T19:29:55.183Z,11.10
2018-02-10T19:32:25.009Z,12.77
2018-02-10T19:34:53.982Z,12.20
2018-02-10T19:37:23.277Z,11.35
2018-02-10T19:39:53.571Z,11.85
2018-02-10T19:42:22.044Z,11.43
2018-02-10T19:44:50.677Z,11.73
2018-02-10T19:47:19.086Z,12.75
2018-02-10T19:49:47.957Z,13.23
2018-02-10T19:52:16.331Z,13.32
2018-02-10T19:54:45.385Z,12.68
2018-02-10T19:57:15.504Z,13.40
2018-02-10T19:59:45.499Z,13.70
2018-02-10T20:02:14.659Z,12.63
2018-02-10T20:04:43.852Z,11.55
2018-02-10T20:07:13.305Z,12.35
2018-02-10T20:09:42.553Z,12.27
2018-02-10T20:12:12.372Z,13.05
2018-02-10T20:14:41.610Z,12.60
2018-02-10T20:17:10.522Z,13.05
2018-02-10T20:19:39.217Z,12.40
2018-02-10T20:22:08.015Z,12.85
2018-02-10T20:24:36.759Z,12.90
2018-02-10T20:27:06.241Z,12.93
2018-02-10T20:29:34.909Z,12.57
2018-02-10T20:32:05.520Z,12.55
2018-02-10T20:34:33.997Z,12.73
2018-02-10T20:37:02.883Z,13.38
2018-02-10T20:39:32.422Z,15.63
2018-02-10T20:42:01.589Z,15.40
2018-02-10T20:44:30.127Z,15.00
2018-02-10T20:47:00.160Z,12.82
2018-02-10T20:49:31.391Z,11.60
2018-02-10T20:52:02.858Z,11.70
2018-02-10T20:54:36.570Z,10.65
2018-02-10T20:57:06.855Z,12.18
2018-02-10T20:59:38.331Z,11.20
2018-02-10T21:02:08.539Z,11.43
2018-02-10T21:04:37.166Z,9.80
2018-02-10T21:07:07.354Z,10.63
2018-02-10T21:09:38.301Z,9.75
2018-02-10T21:12:11.385Z,8.75
2018-02-10T21:14:44.194Z,8.77
2018-02-10T21:17:17.212Z,8.02
2018-02-10T21:19:47.030Z,9.05
2018-02-10T21:22:27.342Z,8.10
2018-02-10T21:24:56.802Z,8.77
2018-02-10T21:27:25.462Z,8.70
2018-02-10T21:29:55.782Z,9.40
2018-02-10T21:32:25.213Z,8.43
2018-02-10T21:34:58.689Z,8.93
2018-02-10T21:37:29.455Z,9.30
2018-02-10T21:40:03.846Z,9.35
2018-02-10T21:42:36.195Z,10.60
2018-02-10T21:45:14.328Z,10.15
2018-02-10T21:47:45.172Z,9.77
2018-02-10T21:50:13.755Z,10.77
2018-02-10T21:52:44.904Z,10.50
2018-02-10T21:55:14.289Z,10.77
2018-02-10T21:57:43.819Z,10.30
2018-02-10T22:00:12.363Z,10.02
2018-02-10T22:02:40.744Z,11.60
2018-02-10T22:05:09.114Z,13.90
2018-02-10T22:07:38.440Z,10.85
2018-02-10T22:10:07.171Z,12.20
2018-02-10T22:12:35.636Z,14.87
2018-02-10T22:15:03.985Z,12.55
2018-02-10T22:17:33.214Z,14.55
2018-02-10T22:20:01.865Z,14.63
2018-02-10T22:22:31.359Z,11.88
2018-02-10T22:25:00.391Z,10.82
2018-02-10T22:27:29.741Z,11.45
2018-02-10T22:29:58.387Z,11.15
2018-02-10T22:32:26.972Z,11.70
2018-02-10T22:34:55.686Z,11.98
2018-02-10T22:37:24.450Z,10.23
2018-02-10T22:39:53.587Z,11.80
2018-02-10T22:42:22.514Z,12.80
2018-02-10T22:44:52.487Z,13.68
2018-02-10T22:47:21.030Z,10.90
2018-02-10T22:49:50.174Z,9.85
2018-02-10T22:52:18.510Z,10.65
2018-02-10T22:54:46.849Z,11.65
2018-02-10T22:57:16.012Z,11.77
2018-02-10T22:59:44.733Z,10.75
2018-02-10T23:02:13.296Z,10.57
2018-02-10T23:04:42.216Z,9.57
2018-02-10T23:07:10.613Z,8.75
2018-02-10T23:09:40.391Z,10.70
2018-02-10T23:12:08.939Z,9.75
2018-02-10T23:14:38.237Z,8.85
2018-02-10T23:17:10.626Z,11.00
2018-02-10T23:19:39.995Z,10.45
2018-02-10T23:22:09.529Z,10.18
2018-02-10T23:24:38.773Z,10.40
2018-02-10T23:27:07.173Z,9.80
2018-02-10T23:29:35.552Z,9.38
2018-02-10T23:32:06.010Z,10.35
2018-02-10T23:34:35.303Z,9.80
2018-02-10T23:37:03.806Z,10.02
2018-02-10T23:39:32.148Z,11.35
2018-02-10T23:42:01.270Z,8.68
2018-02-10T23:44:29.635Z,9.10
2018-02-10T23:46:59.064Z,10.07
2018-02-10T23:49:29.088Z,9.80
2018-02-10T23:51:57.644Z,10.27
2018-02-10T23:54:27.819Z,9.15
2018-02-10T23:56:56.162Z,9.63
2018-02-10T23:59:25.622Z,10.20
